Time;durP1;ratioP1;P1;durP2;ratioP2;P2;SDS_P1;SDS_P2;PMS_P1;PMS_P2;Temp;Humidity;BMP_temperature;BMP_pressure;BME280_temperature;BME280_humidity;BME280_pressure;Samples;Min_cycle;Max_cycle;Signal;HPM_P1;HPM_P2
2022/06/04 00:00:39;;;;;;;5.32;3.58;;;;;;;12.88;70.35;101890.97;5009287;28;20038;-64
2022/06/04 00:03:06;;;;;;;2.97;2.67;;;;;;;12.97;69.60;101887.78;4998888;28;20864;-64
2022/06/04 00:05:34;;;;;;;6.22;3.33;;;;;;;12.84;70.02;101897.44;5015744;28;20045;-65
2022/06/04 00:08:02;;;;;;;3.92;3.50;;;;;;;12.80;70.50;101901.22;5007479;28;20048;-65
2022/06/04 00:16:01;;;;;;;7.18;3.60;;;;;;;12.67;70.84;101896.56;5000114;28;20073;-64
2022/06/04 00:18:28;;;;;;;10.57;3.22;;;;;;;12.62;71.47;101893.28;5001302;28;20054;-65
2022/06/04 00:20:54;;;;;;;5.40;3.65;;;;;;;12.60;71.87;101896.97;5019613;28;20037;-64
2022/06/04 00:23:21;;;;;;;6.75;3.80;;;;;;;12.50;72.69;101896.66;5000715;28;20123;-64
2022/06/04 00:25:50;;;;;;;6.72;3.83;;;;;;;12.45;72.93;101896.03;5000718;28;20038;-65
2022/06/04 00:28:17;;;;;;;6.00;4.00;;;;;;;12.46;72.96;101894.22;4997818;28;20080;-65
2022/06/04 00:30:43;;;;;;;9.40;3.92;;;;;;;12.43;73.09;101898.78;4999933;28;20042;-64
2022/06/04 00:33:08;;;;;;;5.70;4.25;;;;;;;12.35;73.53;101887.66;4998312;28;20072;-64
2022/06/04 00:35:35;;;;;;;11.13;4.82;;;;;;;12.31;73.66;101877.19;4999156;28;20107;-64
2022/06/04 00:38:05;;;;;;;5.75;4.10;;;;;;;12.31;73.74;101877.19;4999136;28;20049;-64
2022/06/04 00:41:08;;;;;;;5.55;4.40;;;;;;;12.29;74.06;101879.06;5007107;28;20045;-64
2022/06/04 00:44:13;;;;;;;8.52;4.57;;;;;;;12.24;74.30;101887.34;5000231;28;20053;-63
2022/06/04 00:46:41;;;;;;;8.95;4.10;;;;;;;12.08;75.36;101884.63;5000248;28;20034;-65
2022/06/04 00:49:18;;;;;;;6.85;3.92;;;;;;;12.04;76.10;101888.38;5013835;28;20091;-64
2022/06/04 00:51:51;;;;;;;6.18;4.65;;;;;;;12.03;75.79;101883.13;5014290;28;20506;-64
2022/06/04 00:54:17;;;;;;;8.80;5.10;;;;;;;12.09;75.66;101885.47;4998154;28;20503;-64
2022/06/04 00:57:05;;;;;;;5.70;3.92;;;;;;;11.98;76.40;101888.72;4999138;28;20060;-65
2022/06/04 00:59:37;;;;;;;5.45;4.47;;;;;;;12.03;75.91;101894.69;4998471;28;20116;-65
2022/06/04 01:02:26;;;;;;;7.88;4.82;;;;;;;11.95;76.64;101890.69;4997175;28;20116;-65
2022/06/04 01:05:10;;;;;;;10.52;5.80;;;;;;;11.88;77.08;101891.00;4996424;28;20049;-65
2022/06/04 01:08:04;;;;;;;6.63;4.53;;;;;;;11.85;77.70;101891.19;5011124;28;20041;-65
2022/06/04 01:10:42;;;;;;;9.80;5.05;;;;;;;11.92;77.31;101891.72;5011511;28;20113;-65
2022/06/04 01:13:49;;;;;;;6.75;4.97;;;;;;;11.91;77.37;101895.34;4996684;28;20783;-65
2022/06/04 01:16:30;;;;;;;8.27;4.95;;;;;;;11.88;78.05;101884.81;4996446;28;20057;-65
2022/06/04 01:19:13;;;;;;;13.07;5.47;;;;;;;11.87;77.87;101886.59;4994893;28;20650;-65
2022/06/04 01:22:00;;;;;;;10.00;5.38;;;;;;;11.85;77.76;101887.66;5024376;28;20037;-65
2022/06/04 01:24:45;;;;;;;7.38;5.43;;;;;;;11.74;78.76;101893.50;4997123;28;20140;-65
2022/06/04 01:27:28;;;;;;;6.45;5.18;;;;;;;11.68;79.40;101899.16;4995278;28;20041;-64
2022/06/04 01:30:00;;;;;;;6.68;5.57;;;;;;;11.67;79.45;101908.13;4994968;28;20053;-66
2022/06/04 01:32:31;;;;;;;12.23;6.72;;;;;;;11.68;79.15;101918.72;4996047;28;20037;-65
2022/06/04 01:35:21;;;;;;;12.30;6.18;;;;;;;11.65;79.81;101926.03;4983592;28;20145;-64
2022/06/04 01:38:02;;;;;;;11.50;6.57;;;;;;;11.66;79.79;101933.97;4998262;28;20058;-65
2022/06/04 01:43:23;;;;;;;8.77;6.13;;;;;;;11.71;80.08;101951.59;5002264;28;20685;-65
2022/06/04 01:45:52;;;;;;;10.48;6.57;;;;;;;11.70;79.86;101944.50;5006678;28;20140;-63
2022/06/04 01:48:20;;;;;;;12.15;7.00;;;;;;;11.65;81.09;101963.44;4995748;28;20096;-64
2022/06/04 01:50:59;;;;;;;12.20;6.78;;;;;;;11.68;81.20;101963.28;5008412;28;20385;-64
2022/06/04 01:53:31;;;;;;;9.07;7.22;;;;;;;11.61;81.25;101953.84;5017559;28;20045;-65
2022/06/04 01:56:01;;;;;;;11.57;7.43;;;;;;;11.58;81.36;101949.50;5006624;28;20053;-64
2022/06/04 01:58:51;;;;;;;14.38;8.25;;;;;;;11.53;81.83;101945.34;4997898;28;20030;-65
2022/06/04 02:01:22;;;;;;;13.88;7.93;;;;;;;11.50;81.49;101941.03;4997615;28;20802;-65
2022/06/04 02:03:56;;;;;;;14.02;7.30;;;;;;;11.46;82.22;101955.47;4996898;28;20036;-64
2022/06/04 02:06:27;;;;;;;11.70;7.60;;;;;;;11.39;82.30;101959.38;4996019;28;20140;-64
2022/06/04 02:09:01;;;;;;;17.42;8.32;;;;;;;11.40;82.31;101937.94;5005382;28;20049;-64
2022/06/04 02:11:29;;;;;;;18.20;7.70;;;;;;;11.32;82.89;101942.78;4988486;28;20041;-64
2022/06/04 02:13:58;;;;;;;14.18;8.40;;;;;;;11.27;83.30;101942.16;5009637;28;20045;-65
2022/06/04 02:17:04;;;;;;;13.63;8.45;;;;;;;11.26;83.32;101942.22;4994830;28;20068;-65
2022/06/04 02:19:30;;;;;;;15.82;8.88;;;;;;;11.25;83.44;101937.84;4996085;28;20095;-65
2022/06/04 02:21:56;;;;;;;10.00;7.85;;;;;;;11.28;82.90;101943.00;4996082;28;20045;-65
2022/06/04 02:24:21;;;;;;;13.57;8.60;;;;;;;11.24;83.77;101950.28;4996002;28;20116;-65
2022/06/04 02:26:47;;;;;;;15.80;8.07;;;;;;;11.25;83.46;101949.38;4997334;28;20077;-64
2022/06/04 02:29:13;;;;;;;15.10;8.35;;;;;;;11.21;83.87;101945.13;4996304;28;20566;-64
2022/06/04 02:32:07;;;;;;;15.55;8.50;;;;;;;11.21;84.20;101939.78;4997136;28;20045;-64
2022/06/04 02:34:49;;;;;;;14.77;8.65;;;;;;;11.14;84.80;101941.00;4996959;28;20954;-65
2022/06/04 02:37:48;;;;;;;14.57;9.52;;;;;;;11.07;85.30;101935.09;5007095;28;20072;-65
2022/06/04 02:40:49;;;;;;;18.23;9.32;;;;;;;11.07;85.14;101929.75;4984239;28;20045;-64
2022/06/04 02:43:49;;;;;;;12.30;8.23;;;;;;;11.07;85.46;101934.25;4961817;28;20555;-65
2022/06/04 02:46:24;;;;;;;13.18;8.45;;;;;;;11.06;85.63;101925.38;4982803;28;20069;-65
2022/06/04 02:48:58;;;;;;;17.85;9.32;;;;;;;11.06;85.62;101921.84;4996403;28;20040;-64
2022/06/04 02:51:29;;;;;;;17.83;8.90;;;;;;;11.04;85.99;101918.34;4997196;28;20609;-64
2022/06/04 02:53:56;;;;;;;18.48;8.77;;;;;;;11.00;85.87;101911.47;5007519;28;20034;-64
2022/06/04 02:56:30;;;;;;;14.05;9.02;;;;;;;11.02;85.74;101910.44;4993720;28;20037;-65
2022/06/04 02:59:00;;;;;;;13.48;8.80;;;;;;;10.97;86.18;101903.59;4995670;28;20042;-64
2022/06/04 03:01:28;;;;;;;11.75;8.00;;;;;;;10.95;86.39;101903.66;4995978;28;20103;-64
2022/06/04 03:03:54;;;;;;;16.90;9.18;;;;;;;10.92;86.78;101903.81;4993948;28;20109;-64
2022/06/04 03:06:30;;;;;;;17.98;9.35;;;;;;;10.89;86.79;101910.16;5006156;28;20056;-64
2022/06/04 03:08:56;;;;;;;20.08;9.10;;;;;;;10.91;86.64;101896.75;4996170;28;20084;-65
2022/06/04 03:11:22;;;;;;;15.95;8.68;;;;;;;10.92;86.76;101909.16;4994234;28;20812;-64
2022/06/04 03:13:47;;;;;;;17.13;9.25;;;;;;;10.89;86.99;101918.19;4995805;28;20413;-64
2022/06/04 03:16:15;;;;;;;13.98;10.05;;;;;;;10.87;86.97;101906.69;4995673;28;20052;-65
2022/06/04 03:18:41;;;;;;;19.23;8.95;;;;;;;10.82;87.32;101903.38;4995966;28;20069;-64
2022/06/04 03:21:06;;;;;;;20.77;8.25;;;;;;;10.86;87.45;101898.78;4999365;28;20044;-65
2022/06/04 03:23:32;;;;;;;16.83;8.95;;;;;;;10.80;87.63;101883.06;5005908;28;20033;-65
2022/06/04 03:25:58;;;;;;;16.15;9.15;;;;;;;10.72;87.59;101882.53;4995695;28;20037;-65
2022/06/04 03:28:23;;;;;;;25.52;9.52;;;;;;;10.73;87.71;101890.47;4995627;28;20034;-64
2022/06/04 03:30:49;;;;;;;14.77;9.23;;;;;;;10.77;87.28;101886.72;4995748;28;20125;-64
2022/06/04 03:33:15;;;;;;;14.60;8.95;;;;;;;10.67;88.36;101881.91;5011064;28;20034;-64
2022/06/04 03:35:42;;;;;;;22.23;9.35;;;;;;;10.70;88.18;101884.44;5008700;28;20038;-64
2022/06/04 03:38:08;;;;;;;18.00;9.38;;;;;;;10.71;87.78;101895.03;5008305;28;20047;-64
2022/06/04 03:40:34;;;;;;;15.05;9.07;;;;;;;10.63;88.37;101892.69;4999444;28;20038;-64
2022/06/04 03:42:59;;;;;;;15.52;9.70;;;;;;;10.73;88.35;101893.13;4997174;28;20599;-65
2022/06/04 03:45:26;;;;;;;20.33;9.05;;;;;;;10.77;88.34;101900.06;4999991;28;20052;-64
2022/06/04 03:47:55;;;;;;;12.30;8.48;;;;;;;10.97;87.70;101903.59;5000650;28;20349;-64
2022/06/04 03:50:22;;;;;;;17.40;9.25;;;;;;;10.91;87.70;101907.41;5019571;28;20041;-64
2022/06/04 03:52:48;;;;;;;24.70;10.15;;;;;;;10.79;88.26;101902.66;5006321;28;20073;-64
2022/06/04 03:55:17;;;;;;;21.48;9.43;;;;;;;10.76;88.87;101906.34;4996768;28;20117;-65
2022/06/04 03:57:52;;;;;;;18.35;9.48;;;;;;;10.77;89.06;101904.53;5030886;28;20772;-64
2022/06/04 04:00:17;;;;;;;25.45;9.85;;;;;;;10.82;88.66;101906.03;4998706;28;20407;-65
2022/06/04 04:02:47;;;;;;;16.52;9.52;;;;;;;10.92;88.00;101903.81;4999606;28;20053;-64
2022/06/04 04:05:15;;;;;;;18.27;10.00;;;;;;;10.93;88.22;101907.34;5014343;28;20048;-65
2022/06/04 04:07:41;;;;;;;20.13;10.57;;;;;;;10.99;88.25;101910.56;5000125;28;20116;-64
2022/06/04 04:10:08;;;;;;;18.73;10.45;;;;;;;11.05;88.62;101910.31;4999323;28;20042;-65
2022/06/04 04:12:34;;;;;;;20.90;10.10;;;;;;;11.13;88.00;101908.09;4998866;28;20076;-65
2022/06/04 04:15:00;;;;;;;15.75;10.35;;;;;;;11.19;87.66;101920.28;4999209;28;20048;-65
2022/06/04 04:17:26;;;;;;;17.92;10.68;;;;;;;11.26;87.46;101916.41;5001349;28;20023;-65
2022/06/04 04:19:51;;;;;;;18.52;9.80;;;;;;;11.22;87.31;101924.63;5000100;28;20045;-65
2022/06/04 04:22:19;;;;;;;18.60;10.25;;;;;;;11.29;87.17;101921.56;4997995;28;20069;-64
2022/06/04 04:24:44;;;;;;;19.75;9.13;;;;;;;11.24;87.03;101931.59;4997353;28;20104;-65
2022/06/04 04:27:11;;;;;;;23.13;9.80;;;;;;;11.24;87.30;101931.59;5003451;28;20053;-65
2022/06/04 04:29:37;;;;;;;19.80;9.73;;;;;;;11.35;87.15;101915.09;5005731;28;20046;-64
2022/06/04 04:32:03;;;;;;;17.60;10.30;;;;;;;11.28;87.12;101919.84;4997945;28;20139;-64
2022/06/04 04:34:29;;;;;;;23.23;9.90;;;;;;;11.29;87.19;101915.38;5007979;28;20050;-64
2022/06/04 04:36:55;;;;;;;17.55;10.38;;;;;;;11.36;87.54;101912.34;5011086;28;20065;-65
2022/06/04 04:39:20;;;;;;;19.05;9.70;;;;;;;11.32;87.74;101918.75;5005701;28;20068;-64
2022/06/04 04:41:46;;;;;;;15.43;9.45;;;;;;;11.49;86.51;101936.59;5004053;28;20045;-64
2022/06/04 04:44:11;;;;;;;15.57;10.18;;;;;;;11.51;86.53;101926.72;4997617;28;20775;-65
2022/06/04 04:46:37;;;;;;;19.60;9.50;;;;;;;11.62;85.88;101923.50;4998324;28;20058;-64
2022/06/04 04:49:02;;;;;;;15.95;9.55;;;;;;;11.75;85.59;101927.31;4999402;28;20522;-64
2022/06/04 04:51:30;;;;;;;21.60;10.65;;;;;;;11.76;85.28;101926.38;4999062;28;20049;-65
2022/06/04 04:53:56;;;;;;;18.13;10.48;;;;;;;11.87;84.36;101920.50;5011301;28;20042;-64
2022/06/04 04:56:24;;;;;;;21.10;9.88;;;;;;;12.43;82.60;101930.00;5003789;28;20037;-66
2022/06/04 04:58:49;;;;;;;15.13;8.43;;;;;;;12.73;81.83;101924.81;5032130;28;20038;-65
2022/06/04 05:01:24;;;;;;;19.20;8.90;;;;;;;13.31;78.99;101928.75;4997795;28;20038;-65
2022/06/04 05:03:50;;;;;;;15.18;10.02;;;;;;;12.76;80.46;101930.00;5009369;28;20773;-66
2022/06/04 05:06:18;;;;;;;15.65;8.90;;;;;;;13.10;79.69;101934.34;4996095;28;20029;-65
2022/06/04 05:08:47;;;;;;;15.75;9.18;;;;;;;12.79;80.08;101943.19;4998147;28;20145;-64
2022/06/04 05:11:22;;;;;;;16.73;9.63;;;;;;;13.07;80.11;101939.00;5007312;28;20041;-64
2022/06/04 05:13:49;;;;;;;18.13;9.25;;;;;;;12.83;80.10;101942.09;5004467;28;20046;-64
2022/06/04 05:16:24;;;;;;;16.48;9.43;;;;;;;12.64;81.48;101944.03;5007568;28;20091;-65
2022/06/04 05:18:50;;;;;;;21.00;9.82;;;;;;;12.58;80.82;101950.59;4997424;28;20088;-64
2022/06/04 05:21:34;;;;;;;18.48;9.50;;;;;;;12.68;81.07;101956.31;4997142;28;20533;-66
2022/06/04 05:23:59;;;;;;;16.52;8.90;;;;;;;13.48;78.72;101952.75;4997748;28;20791;-65
2022/06/04 05:26:25;;;;;;;13.45;8.73;;;;;;;14.20;76.26;101949.31;5017047;28;20041;-65
2022/06/04 05:28:51;;;;;;;11.07;7.85;;;;;;;14.41;73.80;101957.03;5005750;28;20029;-65
2022/06/04 05:31:18;;;;;;;18.95;8.48;;;;;;;13.98;75.98;101968.53;4996434;28;20041;-64
2022/06/04 05:33:43;;;;;;;14.88;8.35;;;;;;;13.53;76.96;101966.75;4997012;28;20538;-64
2022/06/04 05:36:09;;;;;;;14.18;8.02;;;;;;;13.53;77.16;101963.19;4996554;28;20076;-65
2022/06/04 05:38:36;;;;;;;13.98;8.73;;;;;;;13.44;78.24;101951.19;4996893;28;20049;-65
2022/06/04 05:41:05;;;;;;;14.95;9.07;;;;;;;13.45;78.39;101967.19;4996142;28;20061;-65
2022/06/04 05:43:31;;;;;;;22.75;8.95;;;;;;;13.29;78.22;101965.47;5001327;28;20037;-65
2022/06/04 05:46:02;;;;;;;19.98;9.35;;;;;;;13.62;77.34;101958.16;4999258;28;20038;-64
2022/06/04 05:48:27;;;;;;;15.40;9.45;;;;;;;13.68;77.37;101948.91;5008373;28;20925;-65
2022/06/04 05:50:55;;;;;;;16.77;8.88;;;;;;;13.44;77.17;101952.03;4996816;28;20034;-65
2022/06/04 05:53:22;;;;;;;14.02;7.55;;;;;;;13.15;77.86;101948.34;5002486;28;20072;-64
2022/06/04 05:55:49;;;;;;;16.13;8.77;;;;;;;13.41;78.08;101960.28;5015294;28;20037;-65
2022/06/04 05:58:14;;;;;;;14.90;9.90;;;;;;;13.56;77.42;101947.81;5015916;28;20042;-65
2022/06/04 06:00:40;;;;;;;17.60;8.45;;;;;;;13.52;77.69;101948.94;5008195;28;20513;-64
2022/06/04 06:03:06;;;;;;;17.77;9.40;;;;;;;13.61;77.65;101944.88;5014741;28;20045;-64
2022/06/04 06:05:32;;;;;;;13.30;8.63;;;;;;;13.56;77.25;101950.50;5017618;28;20102;-66
2022/06/04 06:07:58;;;;;;;14.35;8.27;;;;;;;13.74;77.04;101952.06;5017977;28;20038;-63
2022/06/04 06:10:23;;;;;;;18.15;9.50;;;;;;;13.77;76.67;101955.56;5015659;28;20210;-64
2022/06/04 06:12:49;;;;;;;14.13;8.75;;;;;;;13.94;76.34;101956.25;5017815;28;20053;-64
2022/06/04 06:15:14;;;;;;;16.08;8.80;;;;;;;13.81;76.66;101965.16;5016381;28;20033;-64
2022/06/04 06:17:40;;;;;;;14.85;8.15;;;;;;;14.04;76.14;101961.06;4997506;28;20034;-62
2022/06/04 06:20:07;;;;;;;13.40;7.47;;;;;;;13.99;75.85;101962.22;4994741;28;20081;-64
2022/06/04 06:22:34;;;;;;;14.55;7.85;;;;;;;14.13;74.89;101974.81;4997059;28;20034;-64
2022/06/04 06:25:00;;;;;;;12.60;8.48;;;;;;;13.98;75.23;101978.41;4997557;28;20038;-64
2022/06/04 06:27:26;;;;;;;13.65;8.13;;;;;;;14.01;75.75;101988.97;5010560;28;20041;-64
2022/06/04 06:29:52;;;;;;;17.30;8.90;;;;;;;14.02;74.54;101985.31;5011713;28;20045;-65
2022/06/04 06:32:18;;;;;;;22.45;8.90;;;;;;;13.88;75.32;101994.16;4997044;28;20042;-64
2022/06/04 06:34:43;;;;;;;14.73;8.80;;;;;;;14.09;74.77;101992.03;5017353;28;20033;-65
2022/06/04 06:37:09;;;;;;;14.93;7.88;;;;;;;14.38;74.13;101986.75;5008154;28;20056;-64
2022/06/04 06:39:34;;;;;;;12.18;8.30;;;;;;;14.45;73.69;101994.31;4998288;28;20057;-64
2022/06/04 06:42:01;;;;;;;13.45;7.28;;;;;;;14.33;73.69;102000.44;4997914;28;20734;-64
2022/06/04 06:44:41;;;;;;;15.63;8.98;;;;;;;14.27;74.03;102002.63;5014821;28;20411;-64
2022/06/04 06:47:07;;;;;;;16.65;7.95;;;;;;;14.19;74.29;102000.38;4995194;28;20045;-64
2022/06/04 06:49:33;;;;;;;14.95;8.35;;;;;;;14.31;73.78;102004.16;4989725;28;21076;-64
2022/06/04 06:52:01;;;;;;;9.75;7.03;;;;;;;14.33;73.83;102005.78;5008359;28;20147;-64
2022/06/04 06:54:34;;;;;;;15.70;7.85;;;;;;;14.28;74.09;102002.53;4993811;28;20475;-64
2022/06/04 06:57:01;;;;;;;12.65;8.23;;;;;;;14.27;74.28;102005.31;4993861;28;20057;-64
2022/06/04 06:59:27;;;;;;;13.65;8.13;;;;;;;14.46;73.81;102000.56;4994306;28;20514;-65
2022/06/04 07:01:55;;;;;;;19.90;8.57;;;;;;;14.63;73.44;101999.53;4992490;28;20157;-64
2022/06/04 07:04:25;;;;;;;16.80;8.00;;;;;;;14.45;74.13;102007.72;4999143;28;20041;-65
2022/06/04 07:07:01;;;;;;;12.60;7.97;;;;;;;14.41;73.18;102010.72;4998913;28;20076;-65
2022/06/04 07:09:32;;;;;;;11.35;7.43;;;;;;;14.59;74.38;102006.91;4999773;28;20084;-65
2022/06/04 07:11:58;;;;;;;15.98;9.15;;;;;;;14.80;72.78;102001.16;4996724;28;20136;-65
2022/06/04 07:14:24;;;;;;;12.90;7.97;;;;;;;14.71;72.40;102010.69;4996711;28;20843;-65
2022/06/04 07:16:55;;;;;;;14.00;7.95;;;;;;;14.64;72.40;102012.88;4992317;28;20050;-65
2022/06/04 07:19:23;;;;;;;16.55;8.73;;;;;;;14.81;72.06;102011.84;5001306;28;20117;-64
2022/06/04 07:21:50;;;;;;;14.20;8.30;;;;;;;14.69;72.19;102013.44;5025669;28;20099;-64
2022/06/04 07:24:15;;;;;;;15.02;7.22;;;;;;;14.71;72.20;102014.22;4992376;28;20044;-65
2022/06/04 07:26:42;;;;;;;11.10;7.93;;;;;;;14.92;72.63;102017.41;4993717;28;20038;-63
2022/06/04 07:29:09;;;;;;;15.07;7.57;;;;;;;14.92;71.64;102020.09;4992189;28;20104;-64
2022/06/04 07:31:36;;;;;;;13.45;8.15;;;;;;;14.93;70.78;102012.88;5001578;28;20045;-64
2022/06/04 07:34:02;;;;;;;14.10;8.15;;;;;;;15.15;70.78;102010.53;4994828;28;20925;-64
2022/06/04 07:36:34;;;;;;;13.13;7.95;;;;;;;15.31;70.13;102009.56;4994135;28;20034;-65
2022/06/04 07:39:01;;;;;;;16.48;8.80;;;;;;;15.60;69.46;102019.28;4991696;28;20152;-64
2022/06/04 07:41:32;;;;;;;13.75;7.57;;;;;;;15.75;69.66;102012.91;5003624;28;20041;-64
2022/06/04 07:43:59;;;;;;;12.32;7.50;;;;;;;15.44;70.32;102019.44;4989371;28;20140;-65
2022/06/04 07:46:27;;;;;;;16.85;8.32;;;;;;;15.36;70.33;102007.44;4999377;28;20102;-64
2022/06/04 07:48:57;;;;;;;12.25;7.97;;;;;;;15.58;70.55;102009.59;4993857;28;20689;-64
2022/06/04 07:51:23;;;;;;;11.20;7.50;;;;;;;15.50;69.90;102010.94;4991956;28;20053;-64
2022/06/04 07:53:49;;;;;;;17.23;8.18;;;;;;;15.46;68.90;102020.22;5004287;28;20037;-65
2022/06/04 07:56:16;;;;;;;14.75;7.82;;;;;;;15.60;69.38;102011.22;5002917;28;20022;-65
2022/06/04 07:58:43;;;;;;;13.55;8.15;;;;;;;16.05;68.54;102003.75;4994640;28;20048;-65
2022/06/04 08:01:09;;;;;;;13.90;8.00;;;;;;;15.54;69.05;102020.56;4990284;28;20042;-65
2022/06/04 08:03:37;;;;;;;14.35;7.53;;;;;;;15.76;67.70;102021.84;4993601;28;20194;-64
2022/06/04 08:06:04;;;;;;;12.55;7.82;;;;;;;15.97;67.57;102012.38;5023401;28;20077;-64
2022/06/04 08:08:32;;;;;;;14.48;7.93;;;;;;;16.02;69.11;102014.75;4996606;28;20068;-65
2022/06/04 08:10:59;;;;;;;12.77;7.60;;;;;;;16.18;67.06;102001.97;4989361;28;20042;-64
2022/06/04 08:13:31;;;;;;;14.50;8.10;;;;;;;16.03;67.42;102008.41;4991532;28;20184;-65
2022/06/04 08:15:57;;;;;;;14.18;8.48;;;;;;;16.19;67.40;102009.06;4996376;28;20503;-64
2022/06/04 08:18:24;;;;;;;12.75;8.02;;;;;;;16.19;66.67;102010.91;4995835;28;20026;-65
2022/06/04 08:20:49;;;;;;;16.83;7.60;;;;;;;16.11;67.32;102006.03;5000948;28;20129;-64
2022/06/04 08:23:15;;;;;;;13.98;8.35;;;;;;;16.20;66.40;102015.31;4991063;28;20057;-65
2022/06/04 08:25:44;;;;;;;12.98;7.90;;;;;;;16.05;67.08;102007.31;4993575;28;20141;-65
2022/06/04 08:28:10;;;;;;;12.48;8.43;;;;;;;16.26;66.82;102010.38;4997404;28;20041;-65
2022/06/04 08:30:36;;;;;;;14.52;8.15;;;;;;;16.46;66.49;102013.50;5010572;28;20137;-65
2022/06/04 08:33:03;;;;;;;15.60;7.55;;;;;;;16.66;65.62;102015.66;4999515;28;20138;-65
2022/06/04 08:35:28;;;;;;;15.95;8.27;;;;;;;16.97;64.88;102024.34;5003353;28;20755;-63
2022/06/04 08:37:54;;;;;;;12.48;7.50;;;;;;;16.67;65.10;102036.28;4999439;28;20046;-64
2022/06/04 08:40:35;;;;;;;14.50;7.60;;;;;;;16.20;66.31;102031.47;5019003;28;20034;-64
2022/06/04 08:43:19;;;;;;;11.75;7.97;;;;;;;16.47;65.94;102034.97;5013078;28;20096;-64
2022/06/04 08:45:45;;;;;;;12.65;8.45;;;;;;;16.89;65.36;102035.66;4999320;28;20046;-64
2022/06/04 08:48:19;;;;;;;15.38;9.25;;;;;;;17.04;64.42;102028.31;4999788;28;20111;-64
2022/06/04 08:50:46;;;;;;;11.25;7.45;;;;;;;16.76;65.75;102026.69;5005735;28;20355;-64
2022/06/04 08:53:18;;;;;;;15.40;8.23;;;;;;;17.20;64.73;102026.22;4990277;28;21190;-64
2022/06/04 08:59:16;;;;;;;11.45;7.85;;;;;;;17.60;62.56;102029.56;4988869;28;20905;-64
2022/06/04 09:01:48;;;;;;;9.90;7.00;;;;;;;17.60;62.78;102007.97;5008548;28;20046;-65
2022/06/04 09:04:48;;;;;;;12.27;7.73;;;;;;;17.91;61.13;102012.94;5003297;28;20785;-64
2022/06/04 09:07:16;;;;;;;15.63;8.02;;;;;;;17.49;61.73;102004.38;4988749;28;21269;-65
2022/06/04 09:09:47;;;;;;;14.52;8.43;;;;;;;17.66;62.26;102006.66;4995422;28;20227;-64
2022/06/04 09:12:31;;;;;;;12.45;8.43;;;;;;;18.35;61.09;101988.78;4992382;28;20072;-64
2022/06/04 09:15:05;;;;;;;13.05;8.13;;;;;;;18.59;61.91;101994.13;4994946;28;20147;-64
2022/06/04 09:17:31;;;;;;;9.98;7.55;;;;;;;18.63;59.68;102001.00;5008414;28;20371;-65
2022/06/04 09:19:58;;;;;;;13.38;6.63;;;;;;;18.06;60.55;101992.88;5008691;28;20044;-64
2022/06/04 09:22:36;;;;;;;14.10;7.38;;;;;;;18.11;60.69;102010.44;5004953;28;20025;-65
2022/06/04 09:25:02;;;;;;;17.23;7.80;;;;;;;18.11;59.91;102009.59;4993809;28;20128;-65
2022/06/04 09:27:42;;;;;;;9.15;7.03;;;;;;;18.96;59.55;102010.13;5007964;28;20036;-64
2022/06/04 09:30:18;;;;;;;11.77;7.30;;;;;;;18.91;59.91;102016.91;5000305;28;20476;-65
2022/06/04 09:33:08;;;;;;;16.20;7.53;;;;;;;18.81;59.04;102014.91;5003157;28;20043;-65
2022/06/04 09:35:38;;;;;;;11.27;7.38;;;;;;;18.71;59.63;102003.13;4994200;28;20072;-64
2022/06/04 09:38:04;;;;;;;15.27;8.13;;;;;;;18.73;58.86;102003.88;4991907;28;20057;-64
2022/06/04 09:40:34;;;;;;;12.65;7.60;;;;;;;19.10;59.05;102001.78;4996589;28;20116;-64
2022/06/04 09:43:15;;;;;;;12.13;7.57;;;;;;;18.69;58.71;102005.09;4992854;28;20064;-64
2022/06/04 09:45:41;;;;;;;13.80;8.40;;;;;;;19.56;57.65;102006.13;4998326;28;20041;-64
2022/06/04 09:48:22;;;;;;;12.02;7.95;;;;;;;20.05;57.08;102010.16;4995588;28;20141;-64
2022/06/04 09:50:54;;;;;;;12.55;7.32;;;;;;;20.24;55.90;102006.75;4991905;28;20037;-64
2022/06/04 09:53:28;;;;;;;15.10;8.32;;;;;;;20.12;54.84;102005.06;5000450;28;20562;-64
2022/06/04 09:56:06;;;;;;;17.05;9.05;;;;;;;20.58;54.40;101991.19;5008075;28;20080;-64
2022/06/04 09:58:40;;;;;;;12.40;7.90;;;;;;;20.48;54.12;101992.94;4996559;28;20048;-64
2022/06/04 10:01:16;;;;;;;11.88;7.63;;;;;;;20.74;53.17;102015.09;4992288;28;20042;-65
2022/06/04 10:03:44;;;;;;;14.18;8.52;;;;;;;21.25;53.59;101997.88;4995372;28;20042;-64
2022/06/04 10:06:15;;;;;;;13.38;7.60;;;;;;;21.58;51.25;102004.81;4984556;28;20040;-64
2022/06/04 10:11:35;;;;;;;14.30;8.30;;;;;;;21.99;53.26;102008.31;4995223;28;20164;-64
2022/06/04 10:14:01;;;;;;;12.07;7.82;;;;;;;22.11;51.89;102009.88;4991623;28;20042;-66
2022/06/04 10:16:41;;;;;;;13.95;8.30;;;;;;;21.21;52.43;102007.28;4998751;28;20025;-65
2022/06/04 10:19:14;;;;;;;11.50;8.15;;;;;;;21.72;54.24;102000.84;5000998;28;20041;-66
2022/06/04 10:21:42;;;;;;;16.10;8.70;;;;;;;22.00;50.62;102004.56;5000312;28;20052;-66
2022/06/04 10:24:22;;;;;;;12.55;8.10;;;;;;;21.98;53.11;101998.41;5010102;28;20897;-65
2022/06/04 10:27:00;;;;;;;12.52;8.00;;;;;;;22.01;52.69;102000.00;4991950;28;20022;-65
2022/06/04 10:29:41;;;;;;;10.55;7.70;;;;;;;22.47;51.19;102005.53;5005344;28;20045;-66
2022/06/04 10:32:18;;;;;;;12.75;8.13;;;;;;;22.03;51.55;102014.28;4986747;28;20069;-65
2022/06/04 10:35:06;;;;;;;16.02;7.55;;;;;;;22.07;51.66;102013.84;4995708;28;20967;-65
2022/06/04 10:37:56;;;;;;;14.75;7.15;;;;;;;22.39;49.79;102016.31;4996671;28;20041;-66
2022/06/04 10:40:34;;;;;;;14.40;7.60;;;;;;;22.27;50.51;102014.72;4990660;28;20041;-66
2022/06/04 10:43:17;;;;;;;11.65;7.72;;;;;;;21.94;50.48;102027.75;4996958;28;20038;-66
2022/06/04 10:45:46;;;;;;;15.93;7.32;;;;;;;22.17;52.90;102024.75;4991133;28;20108;-66
2022/06/04 10:48:38;;;;;;;11.55;7.18;;;;;;;21.58;54.36;102018.38;4995575;28;20890;-66
2022/06/04 10:51:44;;;;;;;10.77;7.53;;;;;;;21.91;55.03;102013.56;4988540;28;20131;-64
2022/06/04 10:54:21;;;;;;;13.00;7.43;;;;;;;22.18;52.67;102018.31;5005910;28;20053;-66
2022/06/04 10:56:53;;;;;;;12.15;7.68;;;;;;;21.22;51.57;102025.25;5001088;28;20038;-66
2022/06/04 10:59:28;;;;;;;14.82;8.73;;;;;;;21.63;52.03;102020.69;4999720;28;20034;-66
2022/06/04 11:02:11;;;;;;;12.60;7.93;;;;;;;21.55;52.75;102018.69;4978781;28;20041;-65
2022/06/04 11:04:44;;;;;;;10.02;6.70;;;;;;;21.66;55.87;102012.28;5008618;28;20667;-64
2022/06/04 11:07:40;;;;;;;15.85;7.18;;;;;;;21.78;51.23;102013.84;5005018;28;20069;-65
2022/06/04 11:10:13;;;;;;;8.63;6.80;;;;;;;21.36;50.94;102013.22;4994660;28;20033;-65
2022/06/04 11:12:55;;;;;;;9.23;6.47;;;;;;;22.51;49.98;102010.69;5011648;28;20037;-65
2022/06/04 11:15:26;;;;;;;8.90;7.20;;;;;;;22.76;48.38;101996.44;5025294;28;20037;-65
2022/06/04 11:18:13;;;;;;;9.93;6.50;;;;;;;22.14;48.90;102004.19;4990995;28;20038;-65
2022/06/04 11:20:54;;;;;;;10.55;6.78;;;;;;;23.33;49.59;101993.63;5000229;28;20033;-65
2022/06/04 11:23:55;;;;;;;11.85;6.40;;;;;;;23.70;49.18;101999.03;4991170;28;20045;-66
2022/06/04 11:26:58;;;;;;;11.40;6.70;;;;;;;23.36;47.69;102004.22;4992542;28;20042;-64
2022/06/04 11:29:24;;;;;;;9.48;6.60;;;;;;;22.39;48.26;102004.53;5025851;28;20828;-64
2022/06/04 11:31:57;;;;;;;10.57;7.18;;;;;;;22.76;49.17;101999.19;5004399;28;20053;-65
2022/06/04 11:34:55;;;;;;;9.98;5.70;;;;;;;22.66;51.03;101993.75;5001501;28;20941;-65
2022/06/04 11:38:04;;;;;;;13.13;6.72;;;;;;;22.32;50.18;102014.31;4988576;28;20062;-65
2022/06/04 11:40:44;;;;;;;10.13;6.00;;;;;;;22.59;48.12;102005.38;4982527;28;20216;-66
2022/06/04 11:43:30;;;;;;;9.02;6.65;;;;;;;23.24;47.06;102017.16;5003407;28;20125;-65
2022/06/04 11:46:16;;;;;;;10.27;6.40;;;;;;;22.82;46.84;101997.72;5000361;28;20945;-65
2022/06/04 11:49:08;;;;;;;12.32;6.05;;;;;;;22.36;49.50;101992.13;4994777;28;20106;-65
2022/06/04 11:51:41;;;;;;;11.80;6.50;;;;;;;22.97;47.49;101998.97;4996441;28;20767;-65
2022/06/04 11:54:45;;;;;;;8.00;5.53;;;;;;;23.20;47.55;101999.44;4984238;28;20041;-65